Sheikhupura Weather



Sheikhupura's Current Weather

Temprature 36o few clouds

few clouds

Rain: 0 %

Min Temprature36o
Max Temprature36o
Humidity26
Wind Speed3.09 m/h
Sun Rise05:12:37
Sun Set18:48:33
Current Time: 08-May-2021 16:01:54
Lat/Lon: 31.7131, 73.9783




Sheikhupura's Geo Location



Sheikhupura's Weather Forecast

Time Overall Temp Min Temp Max Temp Humidity Wind Speed Rain
08-May-2021 (Sat)
17:00:00 few clouds 36.000 36.000 37.020 26 0.99 m/h 0 %
20:00:00 few clouds 34.920 32.770 34.920 25 2 m/h 0 %
23:00:00 light rain 30.950 28.430 30.950 32 1.14 m/h 23 %
09-May-2021 (Sun)
02:00:00 clear sky 27.620 27.620 27.620 36 1.8 m/h 0 %
05:00:00 few clouds 27.240 27.240 27.240 37 2.83 m/h 0 %
08:00:00 scattered clouds 32.510 32.510 32.510 27 3.42 m/h 0 %
11:00:00 broken clouds 37.470 37.470 37.470 19 3.13 m/h 0 %
14:00:00 overcast clouds 39.410 39.410 39.410 14 2.64 m/h 0 %
17:00:00 light rain 31.330 31.330 31.330 26 7.62 m/h 74 %
20:00:00 light rain 26.490 26.490 26.490 46 7.16 m/h 49 %
23:00:00 overcast clouds 26.890 26.890 26.890 45 0.68 m/h 0 %
10-May-2021 (Mon)
02:00:00 overcast clouds 25.870 25.870 25.870 47 1.81 m/h 0 %
05:00:00 overcast clouds 25.770 25.770 25.770 45 0.96 m/h 0 %
08:00:00 overcast clouds 30.470 30.470 30.470 32 4.29 m/h 0 %
11:00:00 overcast clouds 36.010 36.010 36.010 21 3.26 m/h 0 %
14:00:00 overcast clouds 40.010 40.010 40.010 14 1.76 m/h 0 %
17:00:00 broken clouds 39.870 39.870 39.870 13 1.98 m/h 0 %
20:00:00 clear sky 34.570 34.570 34.570 19 3.57 m/h 0 %
23:00:00 clear sky 31.220 31.220 31.220 25 2.01 m/h 0 %
11-May-2021 (Tue)
02:00:00 clear sky 29.130 29.130 29.130 29 3.35 m/h 0 %
05:00:00 scattered clouds 27.760 27.760 27.760 33 2.51 m/h 0 %
08:00:00 few clouds 33.140 33.140 33.140 24 3.25 m/h 0 %
11:00:00 few clouds 38.750 38.750 38.750 16 3.58 m/h 0 %
14:00:00 clear sky 41.740 41.740 41.740 12 3.38 m/h 0 %
17:00:00 clear sky 41.490 41.490 41.490 11 1.7 m/h 0 %
20:00:00 light rain 32.370 32.370 32.370 27 9.46 m/h 18 %
23:00:00 light rain 31.660 31.660 31.660 27 4.77 m/h 44 %
12-May-2021 (Wed)
02:00:00 light rain 29.290 29.290 29.290 34 4.83 m/h 18 %
05:00:00 overcast clouds 27.260 27.260 27.260 41 5.72 m/h 0 %
08:00:00 overcast clouds 30.230 30.230 30.230 34 1.87 m/h 0 %
11:00:00 overcast clouds 33.600 33.600 33.600 27 3.12 m/h 0 %
14:00:00 overcast clouds 31.140 31.140 31.140 34 8.29 m/h 0 %
17:00:00 light rain 28.110 28.110 28.110 45 7.91 m/h 34 %
20:00:00 light rain 26.360 26.360 26.360 50 3.03 m/h 25 %
23:00:00 overcast clouds 25.750 25.750 25.750 52 3.42 m/h 0 %
13-May-2021 (Thu)
02:00:00 overcast clouds 24.830 24.830 24.830 53 2.85 m/h 0 %
05:00:00 light rain 22.630 22.630 22.630 61 1.82 m/h 40 %
08:00:00 broken clouds 27.360 27.360 27.360 45 4.11 m/h 0 %
11:00:00 broken clouds 32.720 32.720 32.720 31 4.34 m/h 0 %
14:00:00 light rain 34.840 34.840 34.840 26 2.07 m/h 11 %

Famous Cities (60)